sensor_id;sensor_type;location;lat;lon;timestamp;temperature;humidity
12761;DHT22;6444;49.742;6.114;2023-08-06T00:01:50;15.20;99.90
12761;DHT22;6444;49.742;6.114;2023-08-06T00:04:17;15.20;99.90
12761;DHT22;6444;49.742;6.114;2023-08-06T00:06:44;15.00;99.90
12761;DHT22;6444;49.742;6.114;2023-08-06T00:09:11;15.00;99.90
12761;DHT22;6444;49.742;6.114;2023-08-06T00:11:38;15.10;99.90
12761;DHT22;6444;49.742;6.114;2023-08-06T00:14:04;15.00;99.90
12761;DHT22;6444;49.742;6.114;2023-08-06T00:16:32;14.90;99.90
12761;DHT22;6444;49.742;6.114;2023-08-06T00:18:58;14.90;99.90
12761;DHT22;6444;49.742;6.114;2023-08-06T00:21:25;14.90;99.90
12761;DHT22;6444;49.742;6.114;2023-08-06T00:23:51;14.60;99.90
12761;DHT22;6444;49.742;6.114;2023-08-06T00:26:18;14.50;99.90
12761;DHT22;6444;49.742;6.114;2023-08-06T00:28:45;14.80;99.90
12761;DHT22;6444;49.742;6.114;2023-08-06T00:31:11;15.00;99.90
12761;DHT22;6444;49.742;6.114;2023-08-06T00:33:38;15.30;99.90
12761;DHT22;6444;49.742;6.114;2023-08-06T00:36:05;15.60;99.90
12761;DHT22;6444;49.742;6.114;2023-08-06T00:38:31;16.00;99.90
12761;DHT22;6444;49.742;6.114;2023-08-06T00:40:58;16.00;99.90
12761;DHT22;6444;49.742;6.114;2023-08-06T00:43:25;16.00;99.90
12761;DHT22;6444;49.742;6.114;2023-08-06T00:45:51;15.80;99.90
12761;DHT22;6444;49.742;6.114;2023-08-06T00:48:18;15.50;99.90
12761;DHT22;6444;49.742;6.114;2023-08-06T00:50:44;15.30;99.90
12761;DHT22;6444;49.742;6.114;2023-08-06T00:53:11;15.10;99.90
12761;DHT22;6444;49.742;6.114;2023-08-06T00:55:38;15.00;99.90
12761;DHT22;6444;49.742;6.114;2023-08-06T00:58:05;15.40;99.90
12761;DHT22;6444;49.742;6.114;2023-08-06T01:00:32;15.40;99.90
12761;DHT22;6444;49.742;6.114;2023-08-06T01:02:58;15.40;99.90
12761;DHT22;6444;49.742;6.114;2023-08-06T01:05:26;15.50;99.90
12761;DHT22;6444;49.742;6.114;2023-08-06T01:08:12;15.50;99.90
12761;DHT22;6444;49.742;6.114;2023-08-06T01:15:49;15.00;99.90
12761;DHT22;6444;49.742;6.114;2023-08-06T01:18:15;15.30;99.90
12761;DHT22;6444;49.742;6.114;2023-08-06T01:20:41;15.10;99.90
12761;DHT22;6444;49.742;6.114;2023-08-06T01:23:08;14.90;99.90
12761;DHT22;6444;49.742;6.114;2023-08-06T01:26:34;14.80;99.90
12761;DHT22;6444;49.742;6.114;2023-08-06T01:28:10;15.10;99.90
12761;DHT22;6444;49.742;6.114;2023-08-06T01:30:35;15.30;99.90
12761;DHT22;6444;49.742;6.114;2023-08-06T01:33:03;15.20;99.90
12761;DHT22;6444;49.742;6.114;2023-08-06T01:35:28;15.00;99.90
12761;DHT22;6444;49.742;6.114;2023-08-06T01:37:55;15.20;99.90
12761;DHT22;6444;49.742;6.114;2023-08-06T01:40:22;15.00;99.90
12761;DHT22;6444;49.742;6.114;2023-08-06T01:42:49;14.90;99.90
12761;DHT22;6444;49.742;6.114;2023-08-06T01:45:16;14.90;99.90
12761;DHT22;6444;49.742;6.114;2023-08-06T01:47:42;14.70;99.90
12761;DHT22;6444;49.742;6.114;2023-08-06T01:50:09;14.50;99.90
12761;DHT22;6444;49.742;6.114;2023-08-06T01:52:36;14.40;99.90
12761;DHT22;6444;49.742;6.114;2023-08-06T01:55:02;14.50;99.90
12761;DHT22;6444;49.742;6.114;2023-08-06T01:57:29;14.60;99.90
12761;DHT22;6444;49.742;6.114;2023-08-06T01:59:55;14.50;99.90
12761;DHT22;6444;49.742;6.114;2023-08-06T02:02:22;14.50;99.90
12761;DHT22;6444;49.742;6.114;2023-08-06T02:04:49;14.40;99.90
12761;DHT22;6444;49.742;6.114;2023-08-06T02:07:15;14.30;99.90
12761;DHT22;6444;49.742;6.114;2023-08-06T02:09:42;14.30;99.90
12761;DHT22;6444;49.742;6.114;2023-08-06T02:12:09;14.50;99.90
12761;DHT22;6444;49.742;6.114;2023-08-06T02:14:35;14.20;99.90
12761;DHT22;6444;49.742;6.114;2023-08-06T02:17:02;14.30;99.90
12761;DHT22;6444;49.742;6.114;2023-08-06T02:19:29;14.30;99.90
12761;DHT22;6444;49.742;6.114;2023-08-06T02:21:56;14.20;99.90
12761;DHT22;6444;49.742;6.114;2023-08-06T02:24:22;14.20;99.90
12761;DHT22;6444;49.742;6.114;2023-08-06T02:26:49;14.20;99.90
12761;DHT22;6444;49.742;6.114;2023-08-06T02:29:17;14.10;99.90
12761;DHT22;6444;49.742;6.114;2023-08-06T02:31:43;14.00;99.90
12761;DHT22;6444;49.742;6.114;2023-08-06T02:34:10;14.20;99.90
12761;DHT22;6444;49.742;6.114;2023-08-06T02:36:36;14.20;99.90
12761;DHT22;6444;49.742;6.114;2023-08-06T02:39:03;14.30;99.90
12761;DHT22;6444;49.742;6.114;2023-08-06T02:41:30;14.30;99.90
12761;DHT22;6444;49.742;6.114;2023-08-06T02:43:56;14.30;99.90
12761;DHT22;6444;49.742;6.114;2023-08-06T02:46:23;14.20;99.90
12761;DHT22;6444;49.742;6.114;2023-08-06T02:48:49;14.30;99.90
12761;DHT22;6444;49.742;6.114;2023-08-06T02:51:16;14.40;99.90
12761;DHT22;6444;49.742;6.114;2023-08-06T02:53:43;14.30;99.90
12761;DHT22;6444;49.742;6.114;2023-08-06T02:56:09;14.40;99.90
12761;DHT22;6444;49.742;6.114;2023-08-06T02:58:36;14.40;99.90
12761;DHT22;6444;49.742;6.114;2023-08-06T03:01:03;14.50;99.90
12761;DHT22;6444;49.742;6.114;2023-08-06T03:03:30;14.40;99.90
12761;DHT22;6444;49.742;6.114;2023-08-06T03:05:56;14.40;99.90
12761;DHT22;6444;49.742;6.114;2023-08-06T03:08:22;14.70;99.90
12761;DHT22;6444;49.742;6.114;2023-08-06T03:10:49;14.90;99.90
12761;DHT22;6444;49.742;6.114;2023-08-06T03:13:19;15.30;99.90
12761;DHT22;6444;49.742;6.114;2023-08-06T03:15:53;15.00;99.90
12761;DHT22;6444;49.742;6.114;2023-08-06T03:18:18;14.70;99.90
12761;DHT22;6444;49.742;6.114;2023-08-06T03:20:44;14.70;99.90
12761;DHT22;6444;49.742;6.114;2023-08-06T03:23:11;14.40;99.90
12761;DHT22;6444;49.742;6.114;2023-08-06T03:25:38;14.50;99.90
12761;DHT22;6444;49.742;6.114;2023-08-06T03:28:05;14.50;99.90
12761;DHT22;6444;49.742;6.114;2023-08-06T03:30:32;14.70;99.90
12761;DHT22;6444;49.742;6.114;2023-08-06T03:32:58;14.80;99.90
12761;DHT22;6444;49.742;6.114;2023-08-06T03:35:25;14.80;99.90
12761;DHT22;6444;49.742;6.114;2023-08-06T03:37:52;14.60;99.90
12761;DHT22;6444;49.742;6.114;2023-08-06T03:40:19;14.60;99.90
12761;DHT22;6444;49.742;6.114;2023-08-06T03:42:46;14.60;99.90
12761;DHT22;6444;49.742;6.114;2023-08-06T03:45:12;14.90;99.90
12761;DHT22;6444;49.742;6.114;2023-08-06T03:47:39;14.50;99.90
12761;DHT22;6444;49.742;6.114;2023-08-06T03:50:06;14.50;99.90
12761;DHT22;6444;49.742;6.114;2023-08-06T03:52:32;14.30;99.90
12761;DHT22;6444;49.742;6.114;2023-08-06T03:54:59;14.30;99.90
12761;DHT22;6444;49.742;6.114;2023-08-06T03:57:25;14.40;99.90
12761;DHT22;6444;49.742;6.114;2023-08-06T03:59:52;14.60;99.90
12761;DHT22;6444;49.742;6.114;2023-08-06T04:02:19;14.50;99.90
12761;DHT22;6444;49.742;6.114;2023-08-06T04:04:45;14.50;99.90
12761;DHT22;6444;49.742;6.114;2023-08-06T04:07:12;14.50;99.90
12761;DHT22;6444;49.742;6.114;2023-08-06T04:09:54;14.40;99.90
12761;DHT22;6444;49.742;6.114;2023-08-06T04:12:20;14.50;99.90
12761;DHT22;6444;49.742;6.114;2023-08-06T04:14:47;14.50;99.90
12761;DHT22;6444;49.742;6.114;2023-08-06T04:17:14;14.50;99.90
12761;DHT22;6444;49.742;6.114;2023-08-06T04:19:40;14.60;99.90
12761;DHT22;6444;49.742;6.114;2023-08-06T04:22:07;14.90;99.90
12761;DHT22;6444;49.742;6.114;2023-08-06T04:24:34;15.10;99.90
12761;DHT22;6444;49.742;6.114;2023-08-06T04:27:00;15.00;99.90
12761;DHT22;6444;49.742;6.114;2023-08-06T04:29:27;14.80;99.90
12761;DHT22;6444;49.742;6.114;2023-08-06T04:31:53;14.70;99.90
12761;DHT22;6444;49.742;6.114;2023-08-06T04:34:20;14.50;99.90
12761;DHT22;6444;49.742;6.114;2023-08-06T04:36:47;14.50;99.90
12761;DHT22;6444;49.742;6.114;2023-08-06T04:39:13;14.30;99.90
12761;DHT22;6444;49.742;6.114;2023-08-06T04:41:40;14.20;99.90
12761;DHT22;6444;49.742;6.114;2023-08-06T04:44:07;14.40;99.90
12761;DHT22;6444;49.742;6.114;2023-08-06T04:46:34;14.40;99.90
12761;DHT22;6444;49.742;6.114;2023-08-06T04:49:01;14.50;99.90
12761;DHT22;6444;49.742;6.114;2023-08-06T04:51:27;14.50;99.90
12761;DHT22;6444;49.742;6.114;2023-08-06T04:53:56;14.80;99.90
12761;DHT22;6444;49.742;6.114;2023-08-06T04:56:21;14.80;99.90
12761;DHT22;6444;49.742;6.114;2023-08-06T04:58:48;14.70;99.90
12761;DHT22;6444;49.742;6.114;2023-08-06T05:01:15;14.90;99.90
12761;DHT22;6444;49.742;6.114;2023-08-06T05:03:41;15.20;99.90
12761;DHT22;6444;49.742;6.114;2023-08-06T05:06:08;15.10;99.90
12761;DHT22;6444;49.742;6.114;2023-08-06T05:08:35;14.90;99.90
12761;DHT22;6444;49.742;6.114;2023-08-06T05:11:02;14.90;99.90
12761;DHT22;6444;49.742;6.114;2023-08-06T05:13:28;15.40;99.90
12761;DHT22;6444;49.742;6.114;2023-08-06T05:15:55;15.80;99.90
12761;DHT22;6444;49.742;6.114;2023-08-06T05:18:22;16.00;99.90
12761;DHT22;6444;49.742;6.114;2023-08-06T05:20:49;16.00;99.90
12761;DHT22;6444;49.742;6.114;2023-08-06T05:23:16;15.70;99.90
12761;DHT22;6444;49.742;6.114;2023-08-06T05:25:42;15.30;99.90
12761;DHT22;6444;49.742;6.114;2023-08-06T05:28:09;15.90;99.90
12761;DHT22;6444;49.742;6.114;2023-08-06T05:30:38;16.80;99.90
12761;DHT22;6444;49.742;6.114;2023-08-06T05:33:02;16.30;99.90
12761;DHT22;6444;49.742;6.114;2023-08-06T05:35:29;16.10;99.90
12761;DHT22;6444;49.742;6.114;2023-08-06T05:37:55;15.90;99.90
12761;DHT22;6444;49.742;6.114;2023-08-06T05:40:22;15.60;99.90
12761;DHT22;6444;49.742;6.114;2023-08-06T05:42:49;15.50;99.90
12761;DHT22;6444;49.742;6.114;2023-08-06T05:45:15;15.30;99.90
12761;DHT22;6444;49.742;6.114;2023-08-06T05:47:42;15.50;99.90
12761;DHT22;6444;49.742;6.114;2023-08-06T05:50:09;15.60;99.90
12761;DHT22;6444;49.742;6.114;2023-08-06T05:52:35;15.40;99.90
12761;DHT22;6444;49.742;6.114;2023-08-06T05:55:03;15.60;99.90
12761;DHT22;6444;49.742;6.114;2023-08-06T05:57:29;15.60;99.90
12761;DHT22;6444;49.742;6.114;2023-08-06T05:59:56;15.70;99.90
12761;DHT22;6444;49.742;6.114;2023-08-06T06:02:22;15.50;99.90
12761;DHT22;6444;49.742;6.114;2023-08-06T06:04:49;15.20;99.90
12761;DHT22;6444;49.742;6.114;2023-08-06T06:07:16;15.30;99.90
12761;DHT22;6444;49.742;6.114;2023-08-06T06:09:43;15.40;99.90
12761;DHT22;6444;49.742;6.114;2023-08-06T06:12:10;15.30;99.90
12761;DHT22;6444;49.742;6.114;2023-08-06T06:14:36;15.40;99.90
12761;DHT22;6444;49.742;6.114;2023-08-06T06:17:03;15.40;99.90
12761;DHT22;6444;49.742;6.114;2023-08-06T06:19:30;15.50;99.90
12761;DHT22;6444;49.742;6.114;2023-08-06T06:21:56;15.60;99.90
12761;DHT22;6444;49.742;6.114;2023-08-06T06:24:23;15.60;99.90
12761;DHT22;6444;49.742;6.114;2023-08-06T06:26:50;16.00;99.90
12761;DHT22;6444;49.742;6.114;2023-08-06T06:29:16;16.20;99.90
12761;DHT22;6444;49.742;6.114;2023-08-06T06:31:44;15.90;99.90
12761;DHT22;6444;49.742;6.114;2023-08-06T06:34:10;15.80;99.90
12761;DHT22;6444;49.742;6.114;2023-08-06T06:36:37;15.90;99.90
12761;DHT22;6444;49.742;6.114;2023-08-06T06:39:04;15.70;99.90
12761;DHT22;6444;49.742;6.114;2023-08-06T06:41:30;15.30;99.90
12761;DHT22;6444;49.742;6.114;2023-08-06T06:43:57;15.40;99.90
12761;DHT22;6444;49.742;6.114;2023-08-06T06:46:23;15.30;99.90
12761;DHT22;6444;49.742;6.114;2023-08-06T06:48:50;15.30;99.90
12761;DHT22;6444;49.742;6.114;2023-08-06T06:51:17;15.20;99.90
12761;DHT22;6444;49.742;6.114;2023-08-06T06:53:43;15.20;99.90
12761;DHT22;6444;49.742;6.114;2023-08-06T06:56:10;15.10;99.90
12761;DHT22;6444;49.742;6.114;2023-08-06T06:58:37;15.20;99.90
12761;DHT22;6444;49.742;6.114;2023-08-06T07:01:03;15.10;99.90
12761;DHT22;6444;49.742;6.114;2023-08-06T07:03:30;15.30;99.90
12761;DHT22;6444;49.742;6.114;2023-08-06T07:05:59;15.30;99.90
12761;DHT22;6444;49.742;6.114;2023-08-06T07:08:26;15.30;99.90
12761;DHT22;6444;49.742;6.114;2023-08-06T07:11:02;15.20;99.90
12761;DHT22;6444;49.742;6.114;2023-08-06T07:13:28;15.30;99.90
12761;DHT22;6444;49.742;6.114;2023-08-06T07:15:55;15.10;99.90
12761;DHT22;6444;49.742;6.114;2023-08-06T07:18:21;15.40;99.90
12761;DHT22;6444;49.742;6.114;2023-08-06T07:20:51;16.00;99.90
12761;DHT22;6444;49.742;6.114;2023-08-06T07:23:14;16.20;99.90
12761;DHT22;6444;49.742;6.114;2023-08-06T07:25:41;16.40;99.90
12761;DHT22;6444;49.742;6.114;2023-08-06T07:28:08;16.40;99.90
12761;DHT22;6444;49.742;6.114;2023-08-06T07:30:37;16.00;99.90
12761;DHT22;6444;49.742;6.114;2023-08-06T07:33:01;16.20;99.90
12761;DHT22;6444;49.742;6.114;2023-08-06T07:35:28;15.40;99.90
12761;DHT22;6444;49.742;6.114;2023-08-06T07:37:55;15.30;99.90
12761;DHT22;6444;49.742;6.114;2023-08-06T07:40:22;15.50;99.90
12761;DHT22;6444;49.742;6.114;2023-08-06T07:42:48;15.60;99.90
12761;DHT22;6444;49.742;6.114;2023-08-06T07:45:15;15.90;99.90
12761;DHT22;6444;49.742;6.114;2023-08-06T07:47:42;16.40;99.90
12761;DHT22;6444;49.742;6.114;2023-08-06T07:50:09;16.40;99.90
12761;DHT22;6444;49.742;6.114;2023-08-06T07:52:36;16.50;99.90
12761;DHT22;6444;49.742;6.114;2023-08-06T07:55:02;16.10;99.90
12761;DHT22;6444;49.742;6.114;2023-08-06T07:57:29;16.00;99.90
12761;DHT22;6444;49.742;6.114;2023-08-06T07:59:55;16.10;99.90
12761;DHT22;6444;49.742;6.114;2023-08-06T08:02:22;16.40;99.90
12761;DHT22;6444;49.742;6.114;2023-08-06T08:04:49;16.90;99.90
12761;DHT22;6444;49.742;6.114;2023-08-06T08:07:15;17.10;99.90
12761;DHT22;6444;49.742;6.114;2023-08-06T08:09:42;16.90;99.90
12761;DHT22;6444;49.742;6.114;2023-08-06T08:12:09;16.90;99.90
12761;DHT22;6444;49.742;6.114;2023-08-06T08:14:35;16.80;99.90
12761;DHT22;6444;49.742;6.114;2023-08-06T08:17:03;16.70;99.90
12761;DHT22;6444;49.742;6.114;2023-08-06T08:19:29;16.70;99.90
12761;DHT22;6444;49.742;6.114;2023-08-06T08:21:56;16.50;99.90
12761;DHT22;6444;49.742;6.114;2023-08-06T08:24:22;16.50;99.90
12761;DHT22;6444;49.742;6.114;2023-08-06T08:26:52;16.40;99.90
12761;DHT22;6444;49.742;6.114;2023-08-06T08:29:21;16.40;99.90
12761;DHT22;6444;49.742;6.114;2023-08-06T08:31:48;16.70;99.90
12761;DHT22;6444;49.742;6.114;2023-08-06T08:34:17;17.00;99.90
12761;DHT22;6444;49.742;6.114;2023-08-06T08:36:44;17.10;99.90
12761;DHT22;6444;49.742;6.114;2023-08-06T08:39:11;16.80;99.90
12761;DHT22;6444;49.742;6.114;2023-08-06T08:41:38;16.80;99.90
12761;DHT22;6444;49.742;6.114;2023-08-06T08:44:06;17.30;99.90
12761;DHT22;6444;49.742;6.114;2023-08-06T08:46:31;18.10;99.90
12761;DHT22;6444;49.742;6.114;2023-08-06T08:48:59;18.80;99.90
12761;DHT22;6444;49.742;6.114;2023-08-06T08:51:27;19.30;99.90
12761;DHT22;6444;49.742;6.114;2023-08-06T08:53:54;19.50;99.90
12761;DHT22;6444;49.742;6.114;2023-08-06T08:56:24;19.50;99.90
12761;DHT22;6444;49.742;6.114;2023-08-06T08:58:50;19.80;99.90
12761;DHT22;6444;49.742;6.114;2023-08-06T09:01:17;20.20;99.90
12761;DHT22;6444;49.742;6.114;2023-08-06T09:03:44;19.60;99.90
12761;DHT22;6444;49.742;6.114;2023-08-06T09:06:11;19.50;99.90
12761;DHT22;6444;49.742;6.114;2023-08-06T09:08:47;19.50;99.90
12761;DHT22;6444;49.742;6.114;2023-08-06T09:11:10;19.50;99.90
12761;DHT22;6444;49.742;6.114;2023-08-06T09:13:36;19.50;99.90
12761;DHT22;6444;49.742;6.114;2023-08-06T09:16:03;19.40;99.90
12761;DHT22;6444;49.742;6.114;2023-08-06T09:18:30;19.60;99.90
12761;DHT22;6444;49.742;6.114;2023-08-06T09:20:57;19.70;99.90
12761;DHT22;6444;49.742;6.114;2023-08-06T09:23:31;19.80;99.90
12761;DHT22;6444;49.742;6.114;2023-08-06T09:25:59;19.00;99.90
12761;DHT22;6444;49.742;6.114;2023-08-06T09:28:36;19.00;99.90
12761;DHT22;6444;49.742;6.114;2023-08-06T09:30:52;18.80;99.90
12761;DHT22;6444;49.742;6.114;2023-08-06T09:33:19;19.00;99.90
12761;DHT22;6444;49.742;6.114;2023-08-06T09:35:46;18.40;99.90
12761;DHT22;6444;49.742;6.114;2023-08-06T09:38:12;18.20;99.90
12761;DHT22;6444;49.742;6.114;2023-08-06T09:40:39;17.60;99.90
12761;DHT22;6444;49.742;6.114;2023-08-06T09:43:06;17.60;99.90
12761;DHT22;6444;49.742;6.114;2023-08-06T09:45:33;18.10;99.90
12761;DHT22;6444;49.742;6.114;2023-08-06T09:48:00;17.90;99.90
12761;DHT22;6444;49.742;6.114;2023-08-06T09:50:30;17.40;99.90
12761;DHT22;6444;49.742;6.114;2023-08-06T09:52:56;17.00;99.90
12761;DHT22;6444;49.742;6.114;2023-08-06T09:55:22;16.60;99.90
12761;DHT22;6444;49.742;6.114;2023-08-06T09:57:49;16.50;99.90
12761;DHT22;6444;49.742;6.114;2023-08-06T10:00:15;17.20;99.90
12761;DHT22;6444;49.742;6.114;2023-08-06T10:02:42;17.60;99.90
12761;DHT22;6444;49.742;6.114;2023-08-06T10:05:09;18.40;99.90
12761;DHT22;6444;49.742;6.114;2023-08-06T10:07:36;18.40;99.90
12761;DHT22;6444;49.742;6.114;2023-08-06T10:10:03;19.00;99.90
12761;DHT22;6444;49.742;6.114;2023-08-06T10:12:31;19.40;99.90
12761;DHT22;6444;49.742;6.114;2023-08-06T10:14:57;19.60;99.90
12761;DHT22;6444;49.742;6.114;2023-08-06T10:17:23;19.70;99.90
12761;DHT22;6444;49.742;6.114;2023-08-06T10:19:50;19.80;99.90
12761;DHT22;6444;49.742;6.114;2023-08-06T10:22:19;20.00;99.90
12761;DHT22;6444;49.742;6.114;2023-08-06T10:27:12;19.60;99.90
12761;DHT22;6444;49.742;6.114;2023-08-06T10:29:39;18.40;99.90
12761;DHT22;6444;49.742;6.114;2023-08-06T10:32:05;17.80;99.90
12761;DHT22;6444;49.742;6.114;2023-08-06T10:34:54;17.60;99.90
12761;DHT22;6444;49.742;6.114;2023-08-06T10:37:20;17.70;99.90
12761;DHT22;6444;49.742;6.114;2023-08-06T10:39:52;17.70;99.90
12761;DHT22;6444;49.742;6.114;2023-08-06T10:42:22;18.40;99.90
12761;DHT22;6444;49.742;6.114;2023-08-06T10:45:11;19.20;99.90
12761;DHT22;6444;49.742;6.114;2023-08-06T10:47:40;20.10;99.90
12761;DHT22;6444;49.742;6.114;2023-08-06T10:50:07;20.10;99.90
12761;DHT22;6444;49.742;6.114;2023-08-06T10:52:34;19.70;99.90
12761;DHT22;6444;49.742;6.114;2023-08-06T10:55:00;19.20;99.90
12761;DHT22;6444;49.742;6.114;2023-08-06T10:57:27;20.50;99.90
12761;DHT22;6444;49.742;6.114;2023-08-06T10:59:53;21.10;99.90
12761;DHT22;6444;49.742;6.114;2023-08-06T11:02:20;21.40;99.90
12761;DHT22;6444;49.742;6.114;2023-08-06T11:04:47;23.00;99.90
12761;DHT22;6444;49.742;6.114;2023-08-06T11:07:13;23.00;99.90
12761;DHT22;6444;49.742;6.114;2023-08-06T11:09:40;22.90;99.90
12761;DHT22;6444;49.742;6.114;2023-08-06T11:12:09;23.40;99.90
12761;DHT22;6444;49.742;6.114;2023-08-06T11:14:36;22.60;99.90
12761;DHT22;6444;49.742;6.114;2023-08-06T11:17:02;22.00;99.90
12761;DHT22;6444;49.742;6.114;2023-08-06T11:19:29;21.30;99.90
12761;DHT22;6444;49.742;6.114;2023-08-06T11:21:56;20.80;99.90
12761;DHT22;6444;49.742;6.114;2023-08-06T11:24:26;19.80;99.90
12761;DHT22;6444;49.742;6.114;2023-08-06T11:26:49;19.50;99.90
12761;DHT22;6444;49.742;6.114;2023-08-06T11:29:16;19.50;99.90
12761;DHT22;6444;49.742;6.114;2023-08-06T11:31:42;20.20;99.90
12761;DHT22;6444;49.742;6.114;2023-08-06T11:34:09;21.20;99.90
12761;DHT22;6444;49.742;6.114;2023-08-06T11:36:39;22.00;99.90
12761;DHT22;6444;49.742;6.114;2023-08-06T11:39:02;22.90;99.90
12761;DHT22;6444;49.742;6.114;2023-08-06T11:44:01;24.00;99.90
12761;DHT22;6444;49.742;6.114;2023-08-06T11:46:27;24.60;99.90
12761;DHT22;6444;49.742;6.114;2023-08-06T11:48:54;24.10;99.90
12761;DHT22;6444;49.742;6.114;2023-08-06T11:51:27;23.10;99.90
12761;DHT22;6444;49.742;6.114;2023-08-06T11:53:59;22.40;99.90
12761;DHT22;6444;49.742;6.114;2023-08-06T11:56:27;22.30;99.90
12761;DHT22;6444;49.742;6.114;2023-08-06T11:58:56;22.20;99.90
12761;DHT22;6444;49.742;6.114;2023-08-06T12:01:23;23.10;99.90
12761;DHT22;6444;49.742;6.114;2023-08-06T12:03:49;23.00;99.90
12761;DHT22;6444;49.742;6.114;2023-08-06T12:06:16;22.30;99.90
12761;DHT22;6444;49.742;6.114;2023-08-06T12:08:42;22.10;99.90
12761;DHT22;6444;49.742;6.114;2023-08-06T12:11:09;22.10;99.90
12761;DHT22;6444;49.742;6.114;2023-08-06T12:13:36;22.50;99.90
12761;DHT22;6444;49.742;6.114;2023-08-06T12:16:02;22.60;99.90
12761;DHT22;6444;49.742;6.114;2023-08-06T12:18:29;23.20;99.90
12761;DHT22;6444;49.742;6.114;2023-08-06T12:20:56;22.40;99.90
12761;DHT22;6444;49.742;6.114;2023-08-06T12:23:22;21.20;99.90
12761;DHT22;6444;49.742;6.114;2023-08-06T12:25:49;21.60;99.90
12761;DHT22;6444;49.742;6.114;2023-08-06T12:28:15;22.60;99.90
12761;DHT22;6444;49.742;6.114;2023-08-06T12:30:42;23.30;99.90
12761;DHT22;6444;49.742;6.114;2023-08-06T12:33:09;22.70;99.90
12761;DHT22;6444;49.742;6.114;2023-08-06T12:35:35;21.00;99.90
12761;DHT22;6444;49.742;6.114;2023-08-06T12:38:02;19.60;99.90
12761;DHT22;6444;49.742;6.114;2023-08-06T12:40:29;18.40;99.90
12761;DHT22;6444;49.742;6.114;2023-08-06T12:42:55;17.90;99.90
12761;DHT22;6444;49.742;6.114;2023-08-06T12:45:22;18.00;99.90
12761;DHT22;6444;49.742;6.114;2023-08-06T12:47:49;18.60;99.90
12761;DHT22;6444;49.742;6.114;2023-08-06T12:50:15;18.60;99.90
12761;DHT22;6444;49.742;6.114;2023-08-06T12:52:43;19.10;99.90
12761;DHT22;6444;49.742;6.114;2023-08-06T12:55:09;19.10;99.90
12761;DHT22;6444;49.742;6.114;2023-08-06T12:57:36;19.30;99.90
12761;DHT22;6444;49.742;6.114;2023-08-06T13:00:02;19.10;99.90
12761;DHT22;6444;49.742;6.114;2023-08-06T13:02:30;19.80;99.90
12761;DHT22;6444;49.742;6.114;2023-08-06T13:04:56;19.70;99.90
12761;DHT22;6444;49.742;6.114;2023-08-06T13:07:23;20.20;99.90
12761;DHT22;6444;49.742;6.114;2023-08-06T13:09:50;19.90;99.90
12761;DHT22;6444;49.742;6.114;2023-08-06T13:12:16;19.60;99.90
12761;DHT22;6444;49.742;6.114;2023-08-06T13:14:44;18.80;99.90
12761;DHT22;6444;49.742;6.114;2023-08-06T13:17:10;18.80;99.90
12761;DHT22;6444;49.742;6.114;2023-08-06T13:19:37;19.10;99.90
12761;DHT22;6444;49.742;6.114;2023-08-06T13:22:04;19.40;99.90
12761;DHT22;6444;49.742;6.114;2023-08-06T13:24:30;19.30;99.90
12761;DHT22;6444;49.742;6.114;2023-08-06T13:26:57;19.50;99.90
12761;DHT22;6444;49.742;6.114;2023-08-06T13:29:25;20.10;99.90
12761;DHT22;6444;49.742;6.114;2023-08-06T13:31:51;20.00;99.90
12761;DHT22;6444;49.742;6.114;2023-08-06T13:34:17;20.80;99.90
12761;DHT22;6444;49.742;6.114;2023-08-06T13:36:45;21.40;99.90
12761;DHT22;6444;49.742;6.114;2023-08-06T13:39:12;21.30;99.90
12761;DHT22;6444;49.742;6.114;2023-08-06T13:41:38;20.80;99.90
12761;DHT22;6444;49.742;6.114;2023-08-06T13:44:05;20.40;99.90
12761;DHT22;6444;49.742;6.114;2023-08-06T13:46:31;20.50;99.90
12761;DHT22;6444;49.742;6.114;2023-08-06T13:48:58;20.60;99.90
12761;DHT22;6444;49.742;6.114;2023-08-06T13:51:25;21.50;99.90
12761;DHT22;6444;49.742;6.114;2023-08-06T13:53:52;21.50;99.90
12761;DHT22;6444;49.742;6.114;2023-08-06T13:56:19;20.90;99.90
12761;DHT22;6444;49.742;6.114;2023-08-06T13:58:45;20.70;99.90
12761;DHT22;6444;49.742;6.114;2023-08-06T14:01:12;20.70;99.90
12761;DHT22;6444;49.742;6.114;2023-08-06T14:03:39;20.60;99.90
12761;DHT22;6444;49.742;6.114;2023-08-06T14:06:06;20.60;99.90
12761;DHT22;6444;49.742;6.114;2023-08-06T14:08:33;20.50;99.90
12761;DHT22;6444;49.742;6.114;2023-08-06T14:10:59;20.70;99.90
12761;DHT22;6444;49.742;6.114;2023-08-06T14:13:26;20.90;99.90
12761;DHT22;6444;49.742;6.114;2023-08-06T14:15:52;21.20;99.90
12761;DHT22;6444;49.742;6.114;2023-08-06T14:18:20;21.10;99.90
12761;DHT22;6444;49.742;6.114;2023-08-06T14:20:46;21.00;99.90
12761;DHT22;6444;49.742;6.114;2023-08-06T14:23:13;21.70;99.90
12761;DHT22;6444;49.742;6.114;2023-08-06T14:25:40;21.10;99.90
12761;DHT22;6444;49.742;6.114;2023-08-06T14:28:07;21.00;99.90
12761;DHT22;6444;49.742;6.114;2023-08-06T14:30:34;20.90;99.90
12761;DHT22;6444;49.742;6.114;2023-08-06T14:33:03;20.70;99.90
12761;DHT22;6444;49.742;6.114;2023-08-06T14:35:30;20.20;99.90
12761;DHT22;6444;49.742;6.114;2023-08-06T14:37:56;20.10;99.90
12761;DHT22;6444;49.742;6.114;2023-08-06T14:40:23;19.30;99.90
12761;DHT22;6444;49.742;6.114;2023-08-06T14:42:50;18.70;99.90
12761;DHT22;6444;49.742;6.114;2023-08-06T14:45:16;18.60;99.90
12761;DHT22;6444;49.742;6.114;2023-08-06T14:47:43;19.00;99.90
12761;DHT22;6444;49.742;6.114;2023-08-06T14:50:10;19.20;99.90
12761;DHT22;6444;49.742;6.114;2023-08-06T14:52:36;19.50;99.90
12761;DHT22;6444;49.742;6.114;2023-08-06T14:55:03;18.70;99.90
12761;DHT22;6444;49.742;6.114;2023-08-06T14:57:30;18.90;99.90
12761;DHT22;6444;49.742;6.114;2023-08-06T14:59:56;18.80;99.90
12761;DHT22;6444;49.742;6.114;2023-08-06T15:02:23;18.50;99.90
12761;DHT22;6444;49.742;6.114;2023-08-06T15:04:49;18.00;99.90
12761;DHT22;6444;49.742;6.114;2023-08-06T15:07:16;17.40;99.90
12761;DHT22;6444;49.742;6.114;2023-08-06T15:09:43;18.40;99.90
12761;DHT22;6444;49.742;6.114;2023-08-06T15:12:10;18.30;99.90
12761;DHT22;6444;49.742;6.114;2023-08-06T15:14:37;19.20;99.90
12761;DHT22;6444;49.742;6.114;2023-08-06T15:17:04;19.50;99.90
12761;DHT22;6444;49.742;6.114;2023-08-06T15:19:31;19.50;99.90
12761;DHT22;6444;49.742;6.114;2023-08-06T15:21:57;18.90;99.90
12761;DHT22;6444;49.742;6.114;2023-08-06T15:24:24;18.80;99.90
12761;DHT22;6444;49.742;6.114;2023-08-06T15:26:51;18.40;99.90
12761;DHT22;6444;49.742;6.114;2023-08-06T15:29:17;18.00;99.90
12761;DHT22;6444;49.742;6.114;2023-08-06T15:31:45;18.10;99.90
12761;DHT22;6444;49.742;6.114;2023-08-06T15:34:11;18.00;99.90
12761;DHT22;6444;49.742;6.114;2023-08-06T15:36:38;18.30;99.90
12761;DHT22;6444;49.742;6.114;2023-08-06T15:39:05;18.40;99.90
12761;DHT22;6444;49.742;6.114;2023-08-06T15:41:31;18.30;99.90
12761;DHT22;6444;49.742;6.114;2023-08-06T15:43:58;17.70;99.90
12761;DHT22;6444;49.742;6.114;2023-08-06T15:46:25;17.70;99.90
12761;DHT22;6444;49.742;6.114;2023-08-06T15:48:52;17.70;99.90
12761;DHT22;6444;49.742;6.114;2023-08-06T15:51:18;18.50;99.90
12761;DHT22;6444;49.742;6.114;2023-08-06T15:53:45;19.00;99.90